This is the latest recevied weather packets stored in our database for station/object OE-11213. If no packets are shown the sender has not sent any weather packets the latest 10 day(s).
| Time | Temp. | Humidity | Pressure | Rain* | Wind** | Luminosity | Snow |
|---|---|---|---|---|---|---|---|
| 1788078330 | 22.78° C | 65% | 1017 hPa | 0 mm | - | 551 W/m² | - |
| 1788077502 | 22.78° C | 63% | 1017.1 hPa | 0 mm | - | 529 W/m² | - |
| 1788077130 | 22.22° C | 67% | 1017.2 hPa | 0 mm | - | 500 W/m² | - |
| 1788076530 | 21.67° C | 68% | 1017.3 hPa | 0 mm | - | 479 W/m² | - |
| 1788075702 | 21.11° C | 72% | 1017.5 hPa | 0 mm | - | 450 W/m² | - |
| 1788075329 | 20.56° C | 74% | 1017.5 hPa | 0 mm | - | 428 W/m² | - |
| 1788074730 | 20.56° C | 74% | 1017.6 hPa | 0 mm | - | 399 W/m² | - |
| 1788073903 | 20° C | 76% | 1017.5 hPa | 0 mm | - | 370 W/m² | - |
| 1788073529 | 20° C | 77% | 1017.5 hPa | 0 mm | - | 341 W/m² | - |
| 1788072929 | 20° C | 78% | 1017.5 hPa | 0 mm | - | 312 W/m² | - |
| 1788072103 | 20° C | 78% | 1017.5 hPa | 0 mm | - | 283 W/m² | - |
| 1788071730 | 18.89° C | 80% | 1017.6 hPa | 0 mm | - | 261 W/m² | - |
| 1788071130 | 18.33° C | 83% | 1017.7 hPa | 0 mm | - | 232 W/m² | - |
| 1788070303 | 17.78° C | 86% | 1017.9 hPa | 0 mm | - | 196 W/m² | - |
| 1788069929 | 17.78° C | 89% | 1017.9 hPa | 0 mm | - | 167 W/m² | - |
| 1788069330 | 16.67° C | 91% | 1018.1 hPa | 0 mm | - | 145 W/m² | - |
| 1788068503 | 16.67° C | 92% | 1018.1 hPa | 0 mm | - | 116 W/m² | - |
| 1788068130 | 16.67° C | 94% | 1018.1 hPa | 0 mm | - | 87 W/m² | - |
| 1788067530 | 16.11° C | 94% | 1018 hPa | 0 mm | - | 58 W/m² | - |
| 1788066703 | 16.11° C | 95% | 1018.1 hPa | 0 mm | - | 44 W/m² | - |
| 1788066329 | 16.11° C | 95% | 1018.1 hPa | 0 mm | - | 22 W/m² | - |
| 1788065729 | 16.11° C | 95% | 1018 hPa | 0 mm | - | 15 W/m² | - |
| 1788064902 | 16.11° C | 95% | 1018 hPa | 0 mm | - | 7 W/m² | - |
| 1788064529 | 16.11° C | 96% | 1018 hPa | 0 mm | - | 0 W/m² | - |
| 1788063929 | 16.11° C | 95% | 1018 hPa | 0 mm | - | 0 W/m² | - |
* Rain latest hour (hover to see other rain measurements)
** Current wind speed in m/s (hover to see current wind gust speed)